createdAt,value
2019-02-09T00:00:24.012Z,992.18
2019-02-09T00:01:24.042Z,992.12
2019-02-09T00:02:24.065Z,992.08
2019-02-09T00:03:24.091Z,992.07
2019-02-09T00:04:24.118Z,992.12
2019-02-09T00:05:24.145Z,992.08
2019-02-09T00:06:24.170Z,992.05
2019-02-09T00:07:24.196Z,992.02
2019-02-09T00:08:24.224Z,991.98
2019-02-09T00:09:24.254Z,992.01
2019-02-09T00:10:24.276Z,991.93
2019-02-09T00:11:24.302Z,991.93
2019-02-09T00:12:24.329Z,991.95
2019-02-09T00:13:24.357Z,991.82
2019-02-09T00:14:24.381Z,991.93
2019-02-09T00:15:24.407Z,991.93
2019-02-09T00:16:24.435Z,991.87
2019-02-09T00:17:24.464Z,991.83
2019-02-09T00:18:24.488Z,991.77
2019-02-09T00:19:24.514Z,991.83
2019-02-09T00:20:24.540Z,991.82
2019-02-09T00:21:24.567Z,991.79
2019-02-09T00:22:24.593Z,991.81
2019-02-09T00:23:24.621Z,991.76
2019-02-09T00:24:24.645Z,991.74
2019-02-09T00:25:24.673Z,991.66
2019-02-09T00:26:24.698Z,991.55
2019-02-09T00:27:24.724Z,991.53
2019-02-09T00:28:24.751Z,991.66
2019-02-09T00:29:24.780Z,991.61
2019-02-09T00:30:24.806Z,991.58
2019-02-09T00:31:24.832Z,991.59
2019-02-09T00:32:24.858Z,991.56
2019-02-09T00:33:24.884Z,991.50
2019-02-09T00:34:24.909Z,991.51
2019-02-09T00:35:24.936Z,991.51
2019-02-09T00:36:24.963Z,991.47
2019-02-09T00:37:24.991Z,991.46
2019-02-09T00:38:25.017Z,991.43
2019-02-09T00:39:25.042Z,991.34
2019-02-09T00:40:25.070Z,991.38
2019-02-09T00:41:25.097Z,991.44
2019-02-09T00:42:25.123Z,991.39
2019-02-09T00:43:25.148Z,991.33
2019-02-09T00:44:25.175Z,991.25
2019-02-09T00:45:25.203Z,991.33
2019-02-09T00:46:25.230Z,991.31
2019-02-09T00:47:25.255Z,991.37
2019-02-09T00:48:25.282Z,991.39
2019-02-09T00:49:25.326Z,991.14
2019-02-09T00:50:25.336Z,991.21
2019-02-09T00:51:25.363Z,991.20
2019-02-09T00:52:25.393Z,991.11
2019-02-09T00:53:25.416Z,991.17
2019-02-09T00:54:25.443Z,991.08
2019-02-09T00:55:25.572Z,991.00
2019-02-09T00:56:25.498Z,991.00
2019-02-09T00:57:25.524Z,990.97
2019-02-09T00:58:25.552Z,990.99
2019-02-09T00:59:25.580Z,990.95
2019-02-09T01:00:25.606Z,990.93
2019-02-09T01:01:25.634Z,990.91
2019-02-09T01:02:25.660Z,990.92
2019-02-09T01:03:25.687Z,990.91
2019-02-09T01:04:25.716Z,990.84
2019-02-09T01:05:25.742Z,990.91
2019-02-09T01:06:25.769Z,990.82
2019-02-09T01:07:25.796Z,990.87
2019-02-09T01:08:25.824Z,990.89
2019-02-09T01:09:25.903Z,990.83
2019-02-09T01:10:25.880Z,990.81
2019-02-09T01:11:25.908Z,990.77
2019-02-09T01:12:25.934Z,990.75
2019-02-09T01:13:25.966Z,990.74
2019-02-09T01:14:25.988Z,990.70
2019-02-09T01:15:26.017Z,990.72
2019-02-09T01:16:26.043Z,990.79
2019-02-09T01:17:26.072Z,990.79
2019-02-09T01:18:26.101Z,990.77
2019-02-09T01:19:26.126Z,990.70
2019-02-09T01:20:26.156Z,990.76
2019-02-09T01:21:26.182Z,990.66
2019-02-09T01:22:26.211Z,990.66
2019-02-09T01:23:26.238Z,990.53
2019-02-09T01:24:26.265Z,990.56
2019-02-09T01:25:26.342Z,990.57
2019-02-09T01:26:26.320Z,990.54
2019-02-09T01:27:26.347Z,990.53
2019-02-09T01:28:26.380Z,990.47
2019-02-09T01:29:26.403Z,990.42
2019-02-09T01:30:26.430Z,990.58
2019-02-09T01:31:26.459Z,990.43
2019-02-09T01:32:26.489Z,990.44
2019-02-09T01:33:26.516Z,990.47
2019-02-09T01:34:26.544Z,990.56
2019-02-09T01:35:26.572Z,990.55
2019-02-09T01:36:26.599Z,990.52
2019-02-09T01:37:26.627Z,990.52
2019-02-09T01:38:26.655Z,990.47
2019-02-09T01:39:26.689Z,990.57
2019-02-09T01:40:26.712Z,990.51
2019-02-09T01:41:26.741Z,990.56
2019-02-09T01:42:26.768Z,990.58
2019-02-09T01:43:26.796Z,990.52
2019-02-09T01:44:26.825Z,990.55
2019-02-09T01:45:26.855Z,990.55
2019-02-09T01:46:26.884Z,990.58
2019-02-09T01:47:26.912Z,990.62
2019-02-09T01:48:26.940Z,990.72
2019-02-09T01:49:26.968Z,990.55
2019-02-09T01:50:26.999Z,990.56
2019-02-09T01:51:27.024Z,990.68
2019-02-09T01:52:27.056Z,990.59
2019-02-09T01:53:27.083Z,990.51
2019-02-09T01:54:27.110Z,990.57
2019-02-09T01:55:27.139Z,990.60
2019-02-09T01:56:27.168Z,990.70
2019-02-09T01:57:27.198Z,990.65
2019-02-09T01:58:27.227Z,990.66
2019-02-09T01:59:27.256Z,990.72
2019-02-09T02:00:27.286Z,990.78
2019-02-09T02:01:27.313Z,990.85
2019-02-09T02:02:27.341Z,990.73
2019-02-09T02:03:27.372Z,990.69
2019-02-09T02:04:27.399Z,990.77
2019-02-09T02:05:27.429Z,990.76
2019-02-09T02:06:27.466Z,990.74
2019-02-09T02:07:27.484Z,990.80
2019-02-09T02:08:28.816Z,990.84
2019-02-09T02:09:27.561Z,990.83
2019-02-09T02:10:27.575Z,990.78
2019-02-09T02:11:27.600Z,990.87
2019-02-09T02:12:27.631Z,990.79
2019-02-09T02:13:27.658Z,990.75
2019-02-09T02:14:27.686Z,990.76
2019-02-09T02:15:27.715Z,990.74
2019-02-09T02:16:27.746Z,990.74
2019-02-09T02:17:27.774Z,990.86
2019-02-09T02:18:27.802Z,990.87
2019-02-09T02:19:27.831Z,990.80
2019-02-09T02:20:27.861Z,990.76
2019-02-09T02:21:27.889Z,990.84
2019-02-09T02:22:27.918Z,990.76
2019-02-09T02:23:27.947Z,990.78
2019-02-09T02:24:27.977Z,990.83
2019-02-09T02:25:28.005Z,990.81
2019-02-09T02:26:28.034Z,990.79
2019-02-09T02:27:28.063Z,990.78
2019-02-09T02:28:28.093Z,990.75
2019-02-09T02:29:28.121Z,990.79
2019-02-09T02:30:28.151Z,990.81
2019-02-09T02:31:28.179Z,990.81
2019-02-09T02:32:28.210Z,990.86
2019-02-09T02:33:28.238Z,990.92
2019-02-09T02:34:28.270Z,990.93
2019-02-09T02:35:28.295Z,990.84
2019-02-09T02:36:28.325Z,991.02
2019-02-09T02:37:28.355Z,991.06
2019-02-09T02:38:28.382Z,991.11
2019-02-09T02:39:28.411Z,991.19
2019-02-09T02:40:28.442Z,991.12
2019-02-09T02:41:28.474Z,991.18
2019-02-09T02:42:28.501Z,991.16
2019-02-09T02:43:28.539Z,991.12
2019-02-09T02:44:28.558Z,991.19
2019-02-09T02:45:28.587Z,991.14
2019-02-09T02:46:28.614Z,991.10
2019-02-09T02:47:28.643Z,991.07
2019-02-09T02:48:28.675Z,991.01
2019-02-09T02:49:28.704Z,991.05
2019-02-09T02:50:28.732Z,991.04
2019-02-09T02:51:28.762Z,991.07
2019-02-09T02:52:28.790Z,991.02
2019-02-09T02:53:28.821Z,991.14
2019-02-09T02:54:28.847Z,991.15
2019-02-09T02:55:28.882Z,991.07
2019-02-09T02:56:28.906Z,991.00
2019-02-09T02:57:29.037Z,991.08
2019-02-09T02:58:28.964Z,991.09
2019-02-09T02:59:28.993Z,991.11
2019-02-09T03:00:32.330Z,991.05
2019-02-09T03:01:29.053Z,991.08
2019-02-09T03:02:29.092Z,991.06
2019-02-09T03:03:29.110Z,991.10
2019-02-09T03:04:29.139Z,991.09
2019-02-09T03:05:29.171Z,991.01
2019-02-09T03:06:29.198Z,991.11
2019-02-09T03:07:29.227Z,991.17
2019-02-09T03:08:29.259Z,991.11
2019-02-09T03:09:29.287Z,991.08
2019-02-09T03:10:29.314Z,991.13
2019-02-09T03:11:29.344Z,991.08
2019-02-09T03:12:29.372Z,990.99
2019-02-09T03:13:29.405Z,991.08
2019-02-09T03:14:29.432Z,991.11
2019-02-09T03:15:29.460Z,991.14
2019-02-09T03:16:29.489Z,991.10
2019-02-09T03:17:29.520Z,991.21
2019-02-09T03:18:29.546Z,991.11
2019-02-09T03:19:29.583Z,991.20
2019-02-09T03:20:29.607Z,991.20
2019-02-09T03:21:29.636Z,991.15
2019-02-09T03:22:29.665Z,991.21
2019-02-09T03:23:29.693Z,991.08
2019-02-09T03:24:29.721Z,991.19
2019-02-09T03:25:29.751Z,991.26
2019-02-09T03:26:29.780Z,991.26
2019-02-09T03:27:29.808Z,991.17
2019-02-09T03:28:29.860Z,991.20
2019-02-09T03:29:29.867Z,991.20
2019-02-09T03:30:29.937Z,991.26
2019-02-09T03:31:29.925Z,991.33
2019-02-09T03:32:29.954Z,991.39
2019-02-09T03:33:29.985Z,991.41
2019-02-09T03:34:30.010Z,991.39
2019-02-09T03:35:30.040Z,991.48
2019-02-09T03:36:30.068Z,991.49
2019-02-09T03:37:30.398Z,991.36
2019-02-09T03:38:30.125Z,991.40
2019-02-09T03:39:30.155Z,991.47
2019-02-09T03:40:30.187Z,991.55
2019-02-09T03:41:30.215Z,991.57
2019-02-09T03:42:30.299Z,991.46
2019-02-09T03:43:30.271Z,991.54
2019-02-09T03:44:30.308Z,991.40
2019-02-09T03:45:30.329Z,991.46
2019-02-09T03:46:30.357Z,991.49
2019-02-09T03:47:30.385Z,991.50
2019-02-09T03:48:30.414Z,991.49
2019-02-09T03:49:30.444Z,991.54
2019-02-09T03:50:30.479Z,991.57
2019-02-09T03:51:30.503Z,991.51
2019-02-09T03:52:30.530Z,991.61
2019-02-09T03:53:30.563Z,991.65
2019-02-09T03:54:30.586Z,991.55
2019-02-09T03:55:30.615Z,991.51
2019-02-09T03:56:30.646Z,991.61
2019-02-09T03:57:30.674Z,991.60
2019-02-09T03:58:30.703Z,991.69
2019-02-09T03:59:30.732Z,991.67
2019-02-09T04:00:30.777Z,991.65
2019-02-09T04:01:30.790Z,991.68
2019-02-09T04:02:30.816Z,991.77
2019-02-09T04:03:30.845Z,991.74
2019-02-09T04:04:30.874Z,991.69
2019-02-09T04:05:30.910Z,991.73
2019-02-09T04:06:30.935Z,991.68
2019-02-09T04:07:30.962Z,991.82
2019-02-09T04:08:30.990Z,991.77
2019-02-09T04:09:31.022Z,991.76
2019-02-09T04:10:31.048Z,991.70
2019-02-09T04:11:31.082Z,991.67
2019-02-09T04:12:31.103Z,991.88
2019-02-09T04:13:31.134Z,991.84
2019-02-09T04:14:31.161Z,991.77
2019-02-09T04:15:31.191Z,991.76
2019-02-09T04:16:31.218Z,991.88
2019-02-09T04:17:31.247Z,991.74
2019-02-09T04:18:31.274Z,991.75
2019-02-09T04:19:31.355Z,991.71
2019-02-09T04:20:31.334Z,991.72
2019-02-09T04:21:31.362Z,991.77
2019-02-09T04:22:31.389Z,991.81
2019-02-09T04:23:31.417Z,991.78
2019-02-09T04:24:31.446Z,991.77
2019-02-09T04:25:31.476Z,991.82
2019-02-09T04:26:31.503Z,991.78
2019-02-09T04:27:31.532Z,991.83
2019-02-09T04:28:31.574Z,991.85
2019-02-09T04:29:31.590Z,991.81
2019-02-09T04:30:31.622Z,991.78
2019-02-09T04:31:34.855Z,991.89
2019-02-09T04:32:31.676Z,991.90
2019-02-09T04:33:31.705Z,991.82
2019-02-09T04:34:31.731Z,991.81
2019-02-09T04:35:31.762Z,991.90
2019-02-09T04:36:31.791Z,991.86
2019-02-09T04:37:31.818Z,991.94
2019-02-09T04:38:31.845Z,991.92
2019-02-09T04:39:31.874Z,991.85
2019-02-09T04:40:31.903Z,991.92
2019-02-09T04:41:31.931Z,991.91
2019-02-09T04:42:31.958Z,991.89
2019-02-09T04:43:31.987Z,991.84
2019-02-09T04:44:32.017Z,991.93
2019-02-09T04:45:32.046Z,992.00
2019-02-09T04:46:32.071Z,992.05
2019-02-09T04:47:32.102Z,992.03
2019-02-09T04:48:32.133Z,992.06
2019-02-09T04:49:32.158Z,991.98
2019-02-09T04:50:32.185Z,991.98
2019-02-09T04:51:32.214Z,992.09
2019-02-09T04:52:32.242Z,992.13
2019-02-09T04:53:32.271Z,992.15
2019-02-09T04:54:32.299Z,992.13
2019-02-09T04:55:32.329Z,992.17
2019-02-09T04:56:32.358Z,992.27
2019-02-09T04:57:32.384Z,992.26
2019-02-09T04:58:32.413Z,992.20
2019-02-09T04:59:32.441Z,992.29
2019-02-09T05:00:32.470Z,992.34
2019-02-09T05:01:32.519Z,992.34
2019-02-09T05:02:32.525Z,992.36
2019-02-09T05:03:32.555Z,992.34
2019-02-09T05:04:32.580Z,992.34
2019-02-09T05:05:32.610Z,992.44
2019-02-09T05:06:32.637Z,992.33
2019-02-09T05:07:32.666Z,992.41
2019-02-09T05:08:32.695Z,992.37
2019-02-09T05:09:32.724Z,992.41
2019-02-09T05:10:32.751Z,992.46
2019-02-09T05:11:32.780Z,992.54
2019-02-09T05:12:32.813Z,992.45
2019-02-09T05:13:32.836Z,992.50
2019-02-09T05:14:32.883Z,992.44
2019-02-09T05:15:32.892Z,992.47
2019-02-09T05:16:32.922Z,992.52
2019-02-09T05:17:32.949Z,992.60
2019-02-09T05:18:32.975Z,992.55
2019-02-09T05:19:33.003Z,992.55
2019-02-09T05:20:33.032Z,992.50
2019-02-09T05:21:33.063Z,992.60
2019-02-09T05:22:33.087Z,992.52
2019-02-09T05:23:33.115Z,992.61
2019-02-09T05:24:33.144Z,992.65
2019-02-09T05:25:33.173Z,992.62
2019-02-09T05:26:33.201Z,992.62
2019-02-09T05:27:33.227Z,992.55
2019-02-09T05:28:33.255Z,992.61
2019-02-09T05:29:33.335Z,992.55
2019-02-09T05:30:33.310Z,992.56
2019-02-09T05:31:33.339Z,992.59
2019-02-09T05:32:33.369Z,992.65
2019-02-09T05:33:33.395Z,992.67
2019-02-09T05:34:33.424Z,992.77
2019-02-09T05:35:33.452Z,992.86
2019-02-09T05:36:33.481Z,992.87
2019-02-09T05:37:33.510Z,992.88
2019-02-09T05:38:33.534Z,992.80
2019-02-09T05:39:33.924Z,992.83
2019-02-09T05:40:33.591Z,992.82
2019-02-09T05:41:33.619Z,992.81
2019-02-09T05:42:33.646Z,992.78
2019-02-09T05:43:33.676Z,992.84
2019-02-09T05:44:33.703Z,992.72
2019-02-09T05:45:33.746Z,992.79
2019-02-09T05:46:33.760Z,992.80
2019-02-09T05:47:33.787Z,992.83
2019-02-09T05:48:33.816Z,992.87
2019-02-09T05:49:33.845Z,992.87
2019-02-09T05:50:33.872Z,992.92
2019-02-09T05:51:33.902Z,992.85
2019-02-09T05:52:33.929Z,992.84
2019-02-09T05:53:33.955Z,992.87
2019-02-09T05:54:33.985Z,992.93
2019-02-09T05:55:34.011Z,992.99
2019-02-09T05:56:34.040Z,993.04
2019-02-09T05:57:34.070Z,992.89
2019-02-09T05:58:34.097Z,992.99
2019-02-09T05:59:34.125Z,993.03
2019-02-09T06:00:34.157Z,993.02
2019-02-09T06:01:34.181Z,992.97
2019-02-09T06:02:34.239Z,992.93
2019-02-09T06:03:34.238Z,993.04
2019-02-09T06:04:34.267Z,993.05
2019-02-09T06:05:34.295Z,993.01
2019-02-09T06:06:34.321Z,993.03
2019-02-09T06:07:34.350Z,993.05
2019-02-09T06:08:34.378Z,993.04
2019-02-09T06:09:34.407Z,993.09
2019-02-09T06:10:34.436Z,993.13
2019-02-09T06:11:34.464Z,993.13
2019-02-09T06:12:34.493Z,993.14
2019-02-09T06:13:34.521Z,993.11
2019-02-09T06:14:34.550Z,993.15
2019-02-09T06:15:34.578Z,993.20
2019-02-09T06:16:34.606Z,993.23
2019-02-09T06:17:34.635Z,993.10
2019-02-09T06:18:34.662Z,993.18
2019-02-09T06:19:34.692Z,993.21
2019-02-09T06:20:34.720Z,993.19
2019-02-09T06:21:34.749Z,993.17
2019-02-09T06:22:34.777Z,993.11
2019-02-09T06:23:34.804Z,993.19
2019-02-09T06:24:34.834Z,993.15
2019-02-09T06:25:34.862Z,993.22
2019-02-09T06:26:34.890Z,993.29
2019-02-09T06:27:34.919Z,993.33
2019-02-09T06:28:34.951Z,993.38
2019-02-09T06:29:34.976Z,993.47
2019-02-09T06:30:35.004Z,993.47
2019-02-09T06:31:40.568Z,993.44
2019-02-09T06:32:35.061Z,993.60
2019-02-09T06:33:35.089Z,993.54
2019-02-09T06:34:35.169Z,993.58
2019-02-09T06:35:35.147Z,993.69
2019-02-09T06:36:35.185Z,993.61
2019-02-09T06:37:35.205Z,993.72
2019-02-09T06:38:35.232Z,993.74
2019-02-09T06:39:35.261Z,993.71
2019-02-09T06:40:35.290Z,993.72
2019-02-09T06:41:35.318Z,993.82
2019-02-09T06:42:35.346Z,993.80
2019-02-09T06:43:35.374Z,993.73
2019-02-09T06:44:35.403Z,993.79
2019-02-09T06:45:35.434Z,993.87
2019-02-09T06:46:35.459Z,993.89
2019-02-09T06:47:35.490Z,993.85
2019-02-09T06:48:35.517Z,993.94
2019-02-09T06:49:35.547Z,993.93
2019-02-09T06:50:35.573Z,993.90
2019-02-09T06:51:35.602Z,994.01
2019-02-09T06:52:35.632Z,993.94
2019-02-09T06:53:35.661Z,993.95
2019-02-09T06:54:35.687Z,993.89
2019-02-09T06:55:35.715Z,993.87
2019-02-09T06:56:35.747Z,993.99
2019-02-09T06:57:35.773Z,993.99
2019-02-09T06:58:35.803Z,993.99
2019-02-09T06:59:35.829Z,994.00
2019-02-09T07:00:35.858Z,993.96
2019-02-09T07:01:35.887Z,993.99
2019-02-09T07:02:35.915Z,993.97
2019-02-09T07:03:35.943Z,994.00
2019-02-09T07:04:35.971Z,993.95
2019-02-09T07:05:36.001Z,993.97
2019-02-09T07:06:36.034Z,993.96
2019-02-09T07:07:36.056Z,994.04
2019-02-09T07:08:36.086Z,994.04
2019-02-09T07:09:36.115Z,994.09
2019-02-09T07:10:36.141Z,994.05
2019-02-09T07:11:36.181Z,994.09
2019-02-09T07:12:36.199Z,994.08
2019-02-09T07:13:36.226Z,994.11
2019-02-09T07:14:36.254Z,994.07
2019-02-09T07:15:36.335Z,994.15
2019-02-09T07:16:36.312Z,994.20
2019-02-09T07:17:36.339Z,994.18
2019-02-09T07:18:36.368Z,994.14
2019-02-09T07:19:36.396Z,994.19
2019-02-09T07:20:36.425Z,994.19
2019-02-09T07:21:36.454Z,994.23
2019-02-09T07:22:36.482Z,994.26
2019-02-09T07:23:36.511Z,994.24
2019-02-09T07:24:36.538Z,994.14
2019-02-09T07:25:36.572Z,994.19
2019-02-09T07:26:36.597Z,994.25
2019-02-09T07:27:36.623Z,994.29
2019-02-09T07:28:36.652Z,994.34
2019-02-09T07:29:36.680Z,994.36
2019-02-09T07:30:36.708Z,994.41
2019-02-09T07:31:36.737Z,994.38
2019-02-09T07:32:36.764Z,994.48
2019-02-09T07:33:36.793Z,994.49
2019-02-09T07:34:36.820Z,994.39
2019-02-09T07:35:36.849Z,994.39
2019-02-09T07:36:36.877Z,994.44
2019-02-09T07:37:36.905Z,994.46
2019-02-09T07:38:36.933Z,994.50
2019-02-09T07:39:36.961Z,994.41
2019-02-09T07:40:36.989Z,994.40
2019-02-09T07:41:37.019Z,994.43
2019-02-09T07:42:37.048Z,994.45
2019-02-09T07:43:37.074Z,994.39
2019-02-09T07:44:37.105Z,994.36
2019-02-09T07:45:37.132Z,994.41
2019-02-09T07:46:37.158Z,994.45
2019-02-09T07:47:37.187Z,994.53
2019-02-09T07:48:37.216Z,994.56
2019-02-09T07:49:37.246Z,994.56
2019-02-09T07:50:37.274Z,994.51
2019-02-09T07:51:37.300Z,994.54
2019-02-09T07:52:37.328Z,994.53
2019-02-09T07:53:37.356Z,994.59
2019-02-09T07:54:37.384Z,994.63
2019-02-09T07:55:37.412Z,994.63
2019-02-09T07:56:37.441Z,994.57
2019-02-09T07:57:37.470Z,994.64
2019-02-09T07:58:37.498Z,994.64
2019-02-09T07:59:37.526Z,994.66
2019-02-09T08:00:37.554Z,994.68
2019-02-09T08:01:37.583Z,994.65
2019-02-09T08:02:37.611Z,994.63
2019-02-09T08:03:37.639Z,994.64
2019-02-09T08:04:37.667Z,994.67
2019-02-09T08:05:37.696Z,994.66
2019-02-09T08:06:37.724Z,994.76
2019-02-09T08:07:37.753Z,994.70
2019-02-09T08:08:37.783Z,994.80
2019-02-09T08:09:37.810Z,994.83
2019-02-09T08:10:37.838Z,994.84
2019-02-09T08:11:37.866Z,994.88
2019-02-09T08:12:37.895Z,994.86
2019-02-09T08:13:37.924Z,994.77
2019-02-09T08:14:37.952Z,994.82
2019-02-09T08:15:37.984Z,994.89
2019-02-09T08:16:38.013Z,994.93
2019-02-09T08:17:38.039Z,994.89
2019-02-09T08:18:39.440Z,994.85
2019-02-09T08:19:38.097Z,994.84
2019-02-09T08:20:38.126Z,994.82
2019-02-09T08:21:38.154Z,994.89
2019-02-09T08:22:38.182Z,994.88
2019-02-09T08:23:38.211Z,994.83
2019-02-09T08:24:38.240Z,994.87
2019-02-09T08:25:38.273Z,994.90
2019-02-09T08:26:38.347Z,994.91
2019-02-09T08:27:38.325Z,994.85
2019-02-09T08:28:38.354Z,994.89
2019-02-09T08:29:38.383Z,994.86
2019-02-09T08:30:38.413Z,994.95
2019-02-09T08:31:38.439Z,994.84
2019-02-09T08:32:38.469Z,994.81
2019-02-09T08:33:38.500Z,994.90
2019-02-09T08:34:38.525Z,994.93
2019-02-09T08:35:40.234Z,994.93
2019-02-09T08:36:38.583Z,994.87
2019-02-09T08:37:38.612Z,994.86
2019-02-09T08:38:38.642Z,994.93
2019-02-09T08:39:38.679Z,994.93
2019-02-09T08:40:38.698Z,994.91
2019-02-09T08:41:38.727Z,994.93
2019-02-09T08:42:39.941Z,994.85
2019-02-09T08:43:38.785Z,994.90
2019-02-09T08:44:38.812Z,994.95
2019-02-09T08:45:38.841Z,994.97
2019-02-09T08:46:38.869Z,994.99
2019-02-09T08:47:38.898Z,994.95
2019-02-09T08:48:38.928Z,995.01
2019-02-09T08:49:38.956Z,995.03
2019-02-09T08:50:38.991Z,995.06
2019-02-09T08:51:39.015Z,995.06
2019-02-09T08:52:39.043Z,995.05
2019-02-09T08:53:39.071Z,995.07
2019-02-09T08:54:39.099Z,995.11
2019-02-09T08:55:39.128Z,995.10
2019-02-09T08:56:39.157Z,995.17
2019-02-09T08:57:39.186Z,995.15
2019-02-09T08:58:39.215Z,995.12
2019-02-09T08:59:39.246Z,995.18
2019-02-09T09:00:39.275Z,995.09
2019-02-09T09:01:39.302Z,995.07
2019-02-09T09:02:39.328Z,995.04
2019-02-09T09:03:39.362Z,995.03
2019-02-09T09:04:39.387Z,995.05
2019-02-09T09:05:39.419Z,995.01
2019-02-09T09:06:39.444Z,994.99
2019-02-09T09:07:39.474Z,995.06
2019-02-09T09:08:39.506Z,995.04
2019-02-09T09:09:39.533Z,995.01
2019-02-09T09:10:39.560Z,994.98
2019-02-09T09:11:39.603Z,995.02
2019-02-09T09:12:39.619Z,995.01
2019-02-09T09:13:39.648Z,994.94
2019-02-09T09:14:39.677Z,994.97
2019-02-09T09:15:39.706Z,995.03
2019-02-09T09:16:39.737Z,995.04
2019-02-09T09:17:39.766Z,995.01
2019-02-09T09:18:39.793Z,995.04
2019-02-09T09:19:39.823Z,995.08
2019-02-09T09:20:39.852Z,995.04
2019-02-09T09:21:39.882Z,995.06
2019-02-09T09:22:41.211Z,995.05
2019-02-09T09:23:39.942Z,995.07
2019-02-09T09:24:39.970Z,995.04
2019-02-09T09:25:40.003Z,995.16
2019-02-09T09:26:40.028Z,995.20
2019-02-09T09:27:40.059Z,995.22
2019-02-09T09:28:40.089Z,995.23
2019-02-09T09:29:40.118Z,995.17
2019-02-09T09:30:40.147Z,995.12
2019-02-09T09:31:40.178Z,995.13
2019-02-09T09:32:40.206Z,995.12
2019-02-09T09:33:40.236Z,995.16
2019-02-09T09:34:40.265Z,995.25
2019-02-09T09:35:40.378Z,995.32
2019-02-09T09:36:40.325Z,995.21
2019-02-09T09:37:40.356Z,995.19
2019-02-09T09:38:40.385Z,995.21
2019-02-09T09:39:40.416Z,995.20
2019-02-09T09:40:40.448Z,995.16
2019-02-09T09:41:40.476Z,995.22
2019-02-09T09:42:40.509Z,995.21
2019-02-09T09:43:40.536Z,995.18
2019-02-09T09:44:40.568Z,995.16
2019-02-09T09:45:40.600Z,995.20
2019-02-09T09:46:40.626Z,995.23
2019-02-09T09:47:40.660Z,995.09
2019-02-09T09:48:40.689Z,995.13
2019-02-09T09:49:40.718Z,995.20
2019-02-09T09:50:40.748Z,995.14
2019-02-09T09:51:40.780Z,995.14
2019-02-09T09:52:40.809Z,995.17
2019-02-09T09:53:40.840Z,995.24
2019-02-09T09:54:40.869Z,995.44
2019-02-09T09:55:40.901Z,995.48
2019-02-09T09:56:40.934Z,995.22
2019-02-09T09:57:40.963Z,995.22
2019-02-09T09:58:40.993Z,995.24
2019-02-09T09:59:41.023Z,995.31
2019-02-09T10:00:41.104Z,995.27
2019-02-09T10:01:41.089Z,995.27
2019-02-09T10:02:41.115Z,995.24
2019-02-09T10:03:41.146Z,995.26
2019-02-09T10:04:41.176Z,995.25
2019-02-09T10:05:41.208Z,995.29
2019-02-09T10:06:41.239Z,995.41
2019-02-09T10:07:41.269Z,995.34
2019-02-09T10:08:41.301Z,995.59
2019-02-09T10:09:41.332Z,995.26
2019-02-09T10:10:41.362Z,995.35
2019-02-09T10:11:41.394Z,995.36
2019-02-09T10:12:41.433Z,995.37
2019-02-09T10:13:41.457Z,995.31
2019-02-09T10:14:41.488Z,995.24
2019-02-09T10:15:41.522Z,995.25
2019-02-09T10:16:41.551Z,995.24
2019-02-09T10:17:41.583Z,995.22
2019-02-09T10:18:41.615Z,995.26
2019-02-09T10:19:41.645Z,995.33
2019-02-09T10:20:41.677Z,995.32
2019-02-09T10:21:41.708Z,995.33
2019-02-09T10:22:41.741Z,995.34
2019-02-09T10:23:43.542Z,995.35
2019-02-09T10:24:41.803Z,995.40
2019-02-09T10:25:41.835Z,995.53
2019-02-09T10:26:41.900Z,995.52
2019-02-09T10:27:41.961Z,995.54
2019-02-09T10:28:41.928Z,995.55
2019-02-09T10:29:41.960Z,995.59
2019-02-09T10:30:41.991Z,995.66
2019-02-09T10:31:42.023Z,995.73
2019-02-09T10:32:44.516Z,995.81
2019-02-09T10:33:42.083Z,995.82
2019-02-09T10:34:42.133Z,995.83
2019-02-09T10:35:42.145Z,995.93
2019-02-09T10:36:42.177Z,996.00
2019-02-09T10:37:42.206Z,996.04
2019-02-09T10:38:42.538Z,996.10
2019-02-09T10:39:42.272Z,996.02
2019-02-09T10:40:42.298Z,996.06
2019-02-09T10:41:42.331Z,996.16
2019-02-09T10:42:42.359Z,996.28
2019-02-09T10:43:42.390Z,996.29
2019-02-09T10:44:42.421Z,996.33
2019-02-09T10:45:42.451Z,996.41
2019-02-09T10:46:43.914Z,996.43
2019-02-09T10:47:42.509Z,996.49
2019-02-09T10:48:42.541Z,996.39
2019-02-09T10:49:42.589Z,996.45
2019-02-09T10:50:42.604Z,996.33
2019-02-09T10:51:42.631Z,996.29
2019-02-09T10:52:42.662Z,996.27
2019-02-09T10:53:42.691Z,996.27
2019-02-09T10:54:42.723Z,996.22
2019-02-09T10:55:42.785Z,996.21
2019-02-09T10:56:42.835Z,996.16
2019-02-09T10:57:43.999Z,996.21
2019-02-09T10:58:42.845Z,996.23
2019-02-09T10:59:42.877Z,996.18
2019-02-09T11:00:42.911Z,996.17
2019-02-09T11:01:42.942Z,996.18
2019-02-09T11:02:42.968Z,996.20
2019-02-09T11:03:43.000Z,996.10
2019-02-09T11:04:43.032Z,996.05
2019-02-09T11:05:43.063Z,996.03
2019-02-09T11:06:43.094Z,996.04
2019-02-09T11:07:43.125Z,995.97
2019-02-09T11:08:43.157Z,996.00
2019-02-09T11:09:43.187Z,995.91
2019-02-09T11:10:43.218Z,995.89
2019-02-09T11:11:43.251Z,996.03
2019-02-09T11:12:43.283Z,996.00
2019-02-09T11:13:43.313Z,995.99
2019-02-09T11:14:43.345Z,996.05
2019-02-09T11:15:43.375Z,996.00
2019-02-09T11:16:43.410Z,995.97
2019-02-09T11:17:43.439Z,995.96
2019-02-09T11:18:43.471Z,996.00
2019-02-09T11:19:43.501Z,996.04
2019-02-09T11:20:43.533Z,996.06
2019-02-09T11:21:43.566Z,996.06
2019-02-09T11:22:43.596Z,996.03
2019-02-09T11:23:43.628Z,996.05
2019-02-09T11:24:43.658Z,995.94
2019-02-09T11:25:43.690Z,995.86
2019-02-09T11:26:43.723Z,995.81
2019-02-09T11:27:43.755Z,995.77
2019-02-09T11:28:43.786Z,995.74
2019-02-09T11:29:43.818Z,995.74
2019-02-09T11:30:43.852Z,995.72
2019-02-09T11:31:43.881Z,995.74
2019-02-09T11:32:43.913Z,995.70
2019-02-09T11:33:43.948Z,995.62
2019-02-09T11:34:43.976Z,995.68
2019-02-09T11:35:44.058Z,995.59
2019-02-09T11:36:44.040Z,995.64
2019-02-09T11:37:44.072Z,995.68
2019-02-09T11:38:44.103Z,995.70
2019-02-09T11:39:44.135Z,995.68
2019-02-09T11:40:44.166Z,995.64
2019-02-09T11:41:44.198Z,995.65
2019-02-09T11:42:44.227Z,995.68
2019-02-09T11:43:44.259Z,995.67
2019-02-09T11:44:44.290Z,995.73
2019-02-09T11:45:44.322Z,995.70
2019-02-09T11:46:44.352Z,995.71
2019-02-09T11:47:44.383Z,995.70
2019-02-09T11:48:44.414Z,995.68
2019-02-09T11:49:44.491Z,995.76
2019-02-09T11:50:44.478Z,995.80
2019-02-09T11:51:44.506Z,995.76
2019-02-09T11:52:44.538Z,995.83
2019-02-09T11:53:44.568Z,995.75
2019-02-09T11:54:44.598Z,995.83
2019-02-09T11:55:44.629Z,995.84
2019-02-09T11:56:44.660Z,995.88
2019-02-09T11:57:44.691Z,995.82
2019-02-09T11:58:44.722Z,995.82
2019-02-09T11:59:44.752Z,995.86
2019-02-09T12:00:44.784Z,995.78
2019-02-09T12:01:44.814Z,995.87
2019-02-09T12:02:44.844Z,995.93
2019-02-09T12:03:44.873Z,995.94
2019-02-09T12:04:44.905Z,995.98
2019-02-09T12:05:44.934Z,996.05
2019-02-09T12:06:44.964Z,996.08
2019-02-09T12:07:44.993Z,996.42
2019-02-09T12:08:45.025Z,996.87
2019-02-09T12:09:45.055Z,996.80
2019-02-09T12:10:45.085Z,996.75
2019-02-09T12:11:45.117Z,996.42
2019-02-09T12:12:45.146Z,996.67
2019-02-09T12:13:45.178Z,996.59
2019-02-09T12:14:45.260Z,996.40
2019-02-09T12:15:45.240Z,996.02
2019-02-09T12:16:45.273Z,995.94
2019-02-09T12:17:45.306Z,995.88
2019-02-09T12:18:45.337Z,995.87
2019-02-09T12:19:45.369Z,995.88
2019-02-09T12:20:45.403Z,995.89
2019-02-09T12:21:45.437Z,995.82
2019-02-09T12:22:45.467Z,995.88
2019-02-09T12:23:45.500Z,995.84
2019-02-09T12:24:45.534Z,995.88
2019-02-09T12:25:45.566Z,995.79
2019-02-09T12:26:45.597Z,995.91
2019-02-09T12:27:45.633Z,995.87
2019-02-09T12:28:45.662Z,995.81